Home > Products > Valid Products > TAF

000
FTUS45 KPUB 230521
TAFPUB
TAF
KPUB 230521Z 2306/2406 VRB06KT P6SM FEW200
     FM231800 12007KT P6SM FEW200
     FM240200 VRB05KT P6SM FEW200=



000
FTUS45 KPUB 230521
TAFCOS
TAF
KCOS 230521Z 2306/2406 35007KT P6SM FEW200
     FM231600 17007KT P6SM FEW200
     FM240200 34006KT P6SM FEW200=



000
FTUS45 KPUB 230521
TAFALS
TAF
KALS 230521Z 2306/2406 VRB06KT P6SM FEW200=



000
FTUS45 KPUB 222331
TAFALS
TAF
KALS 222331Z 2300/2324 24012KT P6SM SCT080 BKN120
     FM230200 29006KT P6SM SCT120 SCT200
     FM230500 VRB05KT P6SM FEW200=



000
FTUS45 KPUB 222331
TAFCOS
TAF
KCOS 222331Z 2300/2324 06007KT P6SM SCT080 BKN120
     FM230200 13006KT P6SM SCT120 SCT200
     FM230600 35007KT P6SM FEW200=



000
FTUS45 KPUB 222331
TAFPUB
TAF
KPUB 222331Z 2300/2324 12008KT P6SM SCT120 BKN200
     FM230400 VRB06KT P6SM FEW200=



000
FTUS45 KPUB 221720
TAFPUB
TAF
KPUB 221720Z 2218/2318 16006KT P6SM FEW150 SCT200
     FM222100 12008KT P6SM SCT120 BKN200
     FM230400 VRB06KT P6SM FEW200=



000
FTUS45 KPUB 221720
TAFCOS
TAF
KCOS 221720Z 2218/2318 17008KT P6SM FEW080 SCT140 SCT200
     FM222100 16012KT P6SM VCSH SCT060 BKN120
     FM230200 13006KT P6SM SCT120 SCT200
     FM230600 35007KT P6SM FEW200=



000
FTUS45 KPUB 221720
TAFALS
TAF
KALS 221720Z 2218/2318 VRB06KT P6SM FEW100 SCT200
     FM222100 23007KT P6SM SCT080 BKN120
     FM230100 29006KT P6SM SCT120 SCT200
     FM230500 VRB05KT P6SM FEW200=



000
FTUS45 KPUB 221720
TAFALS
TAF
KALS 221720Z 2218/2318 VRB06KT P6SM FEW100 SCT200
     FM222100 23007KT P6SM SCT080 BKN120
     FM230100 29006KT P6SM SCT120 SCT200
     FM230500 VRB05KT P6SM FEW200=



000
FTUS45 KPUB 221720
TAFCOS
TAF
KCOS 221720Z 2218/2318 17008KT P6SM FEW080 SCT140 SCT200
     FM222100 16012KT P6SM VCSH SCT060 BKN120
     FM230200 13006KT P6SM SCT120 SCT200
     FM230600 35007KT P6SM FEW200=



000
FTUS45 KPUB 221720
TAFPUB
TAF
KPUB 221720Z 2218/2318 16006KT P6SM FEW150 SCT200
     FM222100 12008KT P6SM SCT120 BKN200
     FM230400 VRB06KT P6SM FEW200=



000
FTUS45 KPUB 221250 AAA
TAFALS
TAF AMD
KALS 221250Z 2213/2312 VRB04KT P6SM SCT001 SCT090
      TEMPO 2213/2215 3/4SM BR BKN001
     FM222000 22007KT P6SM SCT090 BKN120
     FM230300 VRB05KT P6SM SCT090 SCT150=



000
FTUS45 KPUB 221130
TAFALS
TAF
KALS 221130Z 2212/2312 VRB04KT P6SM SCT010 SCT090
     FM222000 22007KT P6SM SCT090 BKN120
     FM230300 VRB05KT P6SM SCT090 SCT150=



000
FTUS45 KPUB 221130
TAFCOS
TAF
KCOS 221130Z 2212/2312 VRB06KT P6SM SCT090 BKN150
     FM221800 15008KT P6SM SCT100 SCT150
     FM222100 16011KT P6SM VCSH SCT090 BKN140
     FM230200 VRB06KT P6SM SCT090 BKN140
     FM230500 VRB05KT P6SM SCT140=



000
FTUS45 KPUB 221130
TAFPUB
TAF
KPUB 221130Z 2212/2312 VRB06KT P6SM SCT100 BKN200
     FM221600 VRB06KT P6SM SCT120 SCT200
     FM222100 12008KT P6SM SCT120 BKN140
     FM230400 VRB06KT P6SM SCT140=



000
FTUS45 KPUB 220536 CCA
TAFCOS
TAF COR
KCOS 220536Z 2206/2306 01009KT P6SM VCSH SCT090 OVC120
     FM221200 VRB06KT P6SM SCT090 BKN150
     FM221800 15008KT P6SM SCT100 SCT150
     FM222100 16011KT P6SM VCSH SCT090 BKN140
     FM230200 VRB06KT P6SM SCT090 BKN140
     FM230500 VRB05KT P6SM SCT140=



000
FTUS45 KPUB 220536 CCA
TAFCOS
TAF COR
KCOS 220536Z 2206/2306 01009KT P6SM VCSH SCT090 OVC120
     FM221200 VRB06KT P6SM SCT090 BKN150
     FM221800 15008KT P6SM SCT100 SCT150
     FM222100 16011KT P6SM VCSH SCT090 BKN140
     FM230200 VRB06KT P6SM SCT090 BKN140
     FM230500 VRB05KT P6SM SCT140=



000
FTUS45 KPUB 220531
TAFALS
TAF
KALS 220531Z 2206/2306 VRB06KT P6SM OVC090
     FM220900 VRB04KT P6SM SCT090 BKN200
     FM221200 VRB04KT P6SM SCT010 SCT090
     FM222000 22007KT P6SM SCT090 BKN120
     FM230300 VRB05KT P6SM SCT090 SCT150=



000
FTUS45 KPUB 220531
TAFCOS
TAF
KCOS 220531Z 2206/2306 01009KT P6SM SCT090 OVC120
     FM221200 VRB06KT P6SM SCT090 BKN150
     FM221800 15008KT P6SM SCT100 SCT150
     FM222100 16011KT P6SM VCSH SCT090 BKN140
     FM230200 VRB06KT P6SM SCT090 BKN140
     FM230500 VRB05KT P6SM SCT140=



000
FTUS45 KPUB 220531
TAFALS
TAF
KALS 220531Z 2206/2306 VRB06KT P6SM OVC090
     FM220900 VRB04KT P6SM SCT090 BKN200
     FM221200 VRB04KT P6SM SCT010 SCT090
     FM222000 22007KT P6SM SCT090 BKN120
     FM230300 VRB05KT P6SM SCT090 SCT150=



000
FTUS45 KPUB 220531
TAFCOS
TAF
KCOS 220531Z 2206/2306 01009KT P6SM SCT090 OVC120
     FM221200 VRB06KT P6SM SCT090 BKN150
     FM221800 15008KT P6SM SCT100 SCT150
     FM222100 16011KT P6SM VCSH SCT090 BKN140
     FM230200 VRB06KT P6SM SCT090 BKN140
     FM230500 VRB05KT P6SM SCT140=



000
FTUS45 KPUB 220531
TAFPUB
TAF
KPUB 220531Z 2206/2306 29008KT P6SM SCT110 OVC150
     FM221200 VRB06KT P6SM SCT100 BKN200
     FM221600 VRB06KT P6SM SCT120 SCT200
     FM222100 12008KT P6SM SCT120 BKN140
     FM230400 VRB06KT P6SM SCT140=



000
FTUS45 KPUB 220531
TAFPUB
TAF
KPUB 220531Z 2206/2306 29008KT P6SM SCT110 OVC150
     FM221200 VRB06KT P6SM SCT100 BKN200
     FM221600 VRB06KT P6SM SCT120 SCT200
     FM222100 12008KT P6SM SCT120 BKN140
     FM230400 VRB06KT P6SM SCT140=



000
FTUS45 KPUB 212329
TAFPUB
TAF
KPUB 212329Z 2200/2224 11008KT P6SM SCT110 BKN200
     FM220300 VRB06KT P6SM SCT100 BKN140
     FM220700 30007KT P6SM BKN090
     FM221200 VRB05KT P6SM SCT090 BKN200
     FM222000 10008KT P6SM SCT120 SCT200=



000
FTUS45 KPUB 212329
TAFALS
TAF
KALS 212329Z 2200/2224 18009KT P6SM SCT090 SCT140
     FM220300 VRB06KT P6SM VCSH BKN090
     FM220900 VRB04KT P6SM SCT090 SCT150=



000
FTUS45 KPUB 212329
TAFCOS
TAF
KCOS 212329Z 2200/2224 18008KT P6SM SCT100 BKN200
     FM220300 36006KT P6SM BKN090
     FM221200 VRB06KT P6SM SCT090 BKN130
     FM221800 15008KT P6SM SCT090 BKN150
     FM222100 16014KT P6SM VCSH BKN090=



000
FTUS45 KPUB 211720
TAFALS
TAF
KALS 211720Z 2118/2218 VRB05KT P6SM FEW120
     FM212000 21009KT P6SM VCSH SCT080 BKN120
     FM220300 18007KT P6SM VCSH SCT080 BKN120
     FM220900 VRB05KT P6SM SCT120=



000
FTUS45 KPUB 211720
TAFPUB
TAF
KPUB 211720Z 2118/2218 VRB05KT P6SM FEW110
     FM212000 17009KT P6SM SCT110 SCT150
     FM220300 34007KT P6SM BKN150=



000
FTUS45 KPUB 211720
TAFCOS
TAF
KCOS 211720Z 2118/2218 14004KT P6SM FEW100
     FM212000 17014KT P6SM BKN100
     FM220300 05006KT P6SM BKN110
     FM220700 35010KT P6SM BKN110=



000
FTUS45 KPUB 211126
TAFCOS
TAF
KCOS 211126Z 2112/2212 VRB04KT P6SM FEW020 SCT200
     FM211500 VRB04KT P6SM SCT200
     FM211700 17008KT P6SM SCT110 SCT150
     FM212000 17014KT P6SM BKN130
     FM220200 VRB06KT P6SM BKN110
     FM220700 35010KT P6SM BKN110=



000
FTUS45 KPUB 211126
TAFALS
TAF
KALS 211126Z 2112/2212 VRB04KT P6SM SCT010 SCT080
     FM211500 VRB06KT P6SM SCT100
     FM211700 VRB06KT P6SM BKN120
     FM212000 21009KT P6SM VCSH SCT080 BKN110
     FM220300 18007KT P6SM VCSH SCT080 BKN120
     FM220900 VRB03KT P6SM SCT120=



000
FTUS45 KPUB 211126
TAFPUB
TAF
KPUB 211126Z 2112/2212 VRB04KT P6SM FEW020 SCT200
     FM211500 VRB05KT P6SM SCT200
     FM211900 14009KT P6SM SCT110 SCT150
     FM220200 VRB06KT P6SM BKN150=



000
FTUS45 KPUB 211126
TAFPUB
TAF
KPUB 211126Z 2112/2212 VRB04KT P6SM FEW020 SCT200
     FM211500 VRB05KT P6SM SCT200
     FM211900 14009KT P6SM SCT110 SCT150
     FM220200 VRB06KT P6SM BKN150=



000
FTUS45 KPUB 211126
TAFPUB
TAF
KPUB 211126Z 2112/2212 VRB04KT P6SM FEW020 SCT200
     FM211500 VRB05KT P6SM SCT200
     FM211900 14009KT P6SM SCT110 SCT150
     FM220200 VRB06KT P6SM BKN150=



000
FTUS45 KPUB 211126
TAFCOS
TAF
KCOS 211126Z 2112/2212 VRB04KT P6SM FEW020 SCT200
     FM211500 VRB04KT P6SM SCT200
     FM211700 17008KT P6SM SCT110 SCT150
     FM212000 17014KT P6SM BKN130
     FM220200 VRB06KT P6SM BKN110
     FM220700 35010KT P6SM BKN110=



000
FTUS45 KPUB 211126
TAFALS
TAF
KALS 211126Z 2112/2212 VRB04KT P6SM SCT010 SCT080
     FM211500 VRB06KT P6SM SCT100
     FM211700 VRB06KT P6SM BKN120
     FM212000 21009KT P6SM VCSH SCT080 BKN110
     FM220300 18007KT P6SM VCSH SCT080 BKN120
     FM220900 VRB03KT P6SM SCT120=



000
FTUS45 KPUB 211126
TAFCOS
TAF
KCOS 211126Z 2112/2212 VRB04KT P6SM FEW020 SCT200
     FM211500 VRB04KT P6SM SCT200
     FM211700 17008KT P6SM SCT110 SCT150
     FM212000 17014KT P6SM BKN130
     FM220200 VRB06KT P6SM BKN110
     FM220700 35010KT P6SM BKN110=



000
FTUS45 KPUB 211126
TAFALS
TAF
KALS 211126Z 2112/2212 VRB04KT P6SM SCT010 SCT080
     FM211500 VRB06KT P6SM SCT100
     FM211700 VRB06KT P6SM BKN120
     FM212000 21009KT P6SM VCSH SCT080 BKN110
     FM220300 18007KT P6SM VCSH SCT080 BKN120
     FM220900 VRB03KT P6SM SCT120=



000
FTUS45 KPUB 211126
TAFPUB
TAF
KPUB 211126Z 2112/2212 VRB04KT P6SM FEW020 SCT200
     FM211500 VRB05KT P6SM SCT200
     FM211900 14009KT P6SM SCT110 SCT150
     FM220200 VRB06KT P6SM BKN150=



000
FTUS45 KPUB 211126
TAFCOS
TAF
KCOS 211126Z 2112/2212 VRB04KT P6SM FEW020 SCT200
     FM211500 VRB04KT P6SM SCT200
     FM211700 17008KT P6SM SCT110 SCT150
     FM212000 17014KT P6SM BKN130
     FM220200 VRB06KT P6SM BKN110
     FM220700 35010KT P6SM BKN110=



000
FTUS45 KPUB 211126
TAFALS
TAF
KALS 211126Z 2112/2212 VRB04KT P6SM SCT010 SCT080
     FM211500 VRB06KT P6SM SCT100
     FM211700 VRB06KT P6SM BKN120
     FM212000 21009KT P6SM VCSH SCT080 BKN110
     FM220300 18007KT P6SM VCSH SCT080 BKN120
     FM220900 VRB03KT P6SM SCT120=



000
FTUS45 KPUB 210520
TAFPUB
TAF
KPUB 210520Z 2106/2206 07008KT P6SM SKC
     FM211000 VRB06KT P6SM FEW020 SCT200
     FM211900 14009KT P6SM SCT110 SCT150
     FM220200 VRB06KT P6SM BKN150=



000
FTUS45 KPUB 210520
TAFALS
TAF
KALS 210520Z 2106/2206 VRB05KT P6SM SCT080
     FM211000 VRB04KT P6SM SCT010 SCT080
     FM211700 VRB06KT P6SM BKN120
     FM212000 21009KT P6SM SCT060 BKN110
     FM220300 18007KT P6SM BKN070=



000
FTUS45 KPUB 210520
TAFCOS
TAF
KCOS 210520Z 2106/2206 08007KT P6SM SKC
     FM211000 VRB06KT P6SM FEW020 SCT200
     FM211700 17008KT P6SM SCT110 SCT150
     FM212000 17014KT P6SM BKN130
     FM220200 VRB06KT P6SM BKN110=



000
FTUS45 KPUB 210520
TAFALS
TAF
KALS 210520Z 2106/2206 VRB05KT P6SM SCT080
     FM211000 VRB04KT P6SM SCT010 SCT080
     FM211700 VRB06KT P6SM BKN120
     FM212000 21009KT P6SM SCT060 BKN110
     FM220300 18007KT P6SM BKN070=



000
FTUS45 KPUB 210520
TAFCOS
TAF
KCOS 210520Z 2106/2206 08007KT P6SM SKC
     FM211000 VRB06KT P6SM FEW020 SCT200
     FM211700 17008KT P6SM SCT110 SCT150
     FM212000 17014KT P6SM BKN130
     FM220200 VRB06KT P6SM BKN110=



000
FTUS45 KPUB 210520
TAFPUB
TAF
KPUB 210520Z 2106/2206 07008KT P6SM SKC
     FM211000 VRB06KT P6SM FEW020 SCT200
     FM211900 14009KT P6SM SCT110 SCT150
     FM220200 VRB06KT P6SM BKN150=



000
FTUS45 KPUB 210109 AAA
TAFCOS
TAF AMD
KCOS 210109Z 2101/2124 12008KT P6SM SCT120
     FM210600 VRB06KT P6SM FEW120
     FM211800 17010KT P6SM SCT120
     FM212000 18012G22KT P6SM SCT100 SCT200=



000
FTUS45 KPUB 210109 AAA
TAFCOS
TAF AMD
KCOS 210109Z 2101/2124 12008KT P6SM SCT120
     FM210600 VRB06KT P6SM FEW120
     FM211800 17010KT P6SM SCT120
     FM212000 18012G22KT P6SM SCT100 SCT200=



000
FTUS45 KPUB 202321
TAFALS
TAF
KALS 202321Z 2100/2124 VRB06KT P6SM SCT110
     FM210500 VRB05KT P6SM BKN110
     FM211900 20008KT P6SM SCT060 BKN110=



000
FTUS45 KPUB 202321
TAFPUB
TAF
KPUB 202321Z 2100/2124 14010KT P6SM SCT120
     FM210200 VRB06KT P6SM FEW120
     FM210600 VRB06KT P6SM SKC
     FM211900 13008KT P6SM SCT120 SCT200=



000
FTUS45 KPUB 202321
TAFCOS
TAF
KCOS 202321Z 2100/2124 16013KT P6SM SCT120
     FM210200 14008KT P6SM FEW120
     FM210600 VRB06KT P6SM FEW120
     FM211800 17010KT P6SM SCT120
     FM212000 18012G22KT P6SM SCT100 SCT200=



000
FTUS45 KPUB 202321
TAFPUB
TAF
KPUB 202321Z 2100/2124 14010KT P6SM SCT120
     FM210200 VRB06KT P6SM FEW120
     FM210600 VRB06KT P6SM SKC
     FM211900 13008KT P6SM SCT120 SCT200=



000
FTUS45 KPUB 202321
TAFCOS
TAF
KCOS 202321Z 2100/2124 16013KT P6SM SCT120
     FM210200 14008KT P6SM FEW120
     FM210600 VRB06KT P6SM FEW120
     FM211800 17010KT P6SM SCT120
     FM212000 18012G22KT P6SM SCT100 SCT200=



000
FTUS45 KPUB 202321
TAFALS
TAF
KALS 202321Z 2100/2124 VRB06KT P6SM SCT110
     FM210500 VRB05KT P6SM BKN110
     FM211900 20008KT P6SM SCT060 BKN110=



000
FTUS45 KPUB 201720
TAFCOS
TAF
KCOS 201720Z 2018/2118 15010KT P6SM FEW120
     FM202000 17012KT P6SM SCT100 SCT150
     FM210600 03005KT P6SM FEW100 SCT150
     FM211500 VRB05KT P6SM FEW100 SCT150=



000
FTUS45 KPUB 201720
TAFPUB
TAF
KPUB 201720Z 2018/2118 VRB05KT P6SM SKC
     FM202100 12008KT P6SM FEW100 SCT150
     FM210300 VRB05KT P6SM FEW150=



000
FTUS45 KPUB 201720
TAFALS
TAF
KALS 201720Z 2018/2118 VRB05KT P6SM SKC
     FM202100 19008KT P6SM SCT070 SCT100 BKN200
     FM210300 VRB05KT P6SM SCT070 BKN100=



000
FTUS45 KPUB 201720
TAFPUB
TAF
KPUB 201720Z 2018/2118 VRB05KT P6SM SKC
     FM202100 12008KT P6SM FEW100 SCT150
     FM210300 VRB05KT P6SM FEW150=



000
FTUS45 KPUB 201720
TAFCOS
TAF
KCOS 201720Z 2018/2118 15010KT P6SM FEW120
     FM202000 17012KT P6SM SCT100 SCT150
     FM210600 03005KT P6SM FEW100 SCT150
     FM211500 VRB05KT P6SM FEW100 SCT150=



000
FTUS45 KPUB 201720
TAFALS
TAF
KALS 201720Z 2018/2118 VRB05KT P6SM SKC
     FM202100 19008KT P6SM SCT070 SCT100 BKN200
     FM210300 VRB05KT P6SM SCT070 BKN100=



000
FTUS45 KPUB 201120
TAFCOS
TAF
KCOS 201120Z 2012/2112 VRB05KT P6SM FEW150
     FM201700 16008KT P6SM FEW150
     FM202000 17012KT P6SM SCT100 SCT150
     FM210200 06007KT P6SM FEW100 SCT150=



000
FTUS45 KPUB 201120
TAFALS
TAF
KALS 201120Z 2012/2112 VRB05KT P6SM FEW070 SCT150
     FM201900 19008KT P6SM SCT070 SCT100 BKN200
     FM210300 VRB05KT P6SM SCT070 BKN100=



000
FTUS45 KPUB 201120
TAFCOS
TAF
KCOS 201120Z 2012/2112 VRB05KT P6SM FEW150
     FM201700 16008KT P6SM FEW150
     FM202000 17012KT P6SM SCT100 SCT150
     FM210200 06007KT P6SM FEW100 SCT150=



000
FTUS45 KPUB 201120
TAFALS
TAF
KALS 201120Z 2012/2112 VRB05KT P6SM FEW070 SCT150
     FM201900 19008KT P6SM SCT070 SCT100 BKN200
     FM210300 VRB05KT P6SM SCT070 BKN100=



000
FTUS45 KPUB 201120
TAFPUB
TAF
KPUB 201120Z 2012/2112 VRB05KT P6SM FEW150
     FM201900 12008KT P6SM FEW100 SCT150
     FM210300 VRB05KT P6SM FEW150=



000
FTUS45 KPUB 201120
TAFPUB
TAF
KPUB 201120Z 2012/2112 VRB05KT P6SM FEW150
     FM201900 12008KT P6SM FEW100 SCT150
     FM210300 VRB05KT P6SM FEW150=



    US Dept of Commerce
    National Oceanic and Atmospheric Administration
    National Weather Service
    1325 East West Highway
    Silver Spring, MD 20910
    Page Author: NWS Internet Services Team
Disclaimer
Information Quality
Credits
Glossary
Privacy Policy
Freedom of Information Act (FOIA)
About Us
Career Opportunities